sensor_id;sensor_type;location;lat;lon;timestamp;P1;durP1;ratioP1;P2;durP2;ratioP2
6019;SDS011;3038;51.122;6.840;2022-08-19T00:02:23;17.40;;;16.00;;
6019;SDS011;3038;51.122;6.840;2022-08-19T00:04:49;16.60;;;15.07;;
6019;SDS011;3038;51.122;6.840;2022-08-19T00:07:17;17.17;;;15.73;;
6019;SDS011;3038;51.122;6.840;2022-08-19T00:09:43;18.60;;;16.83;;
6019;SDS011;3038;51.122;6.840;2022-08-19T00:12:08;18.83;;;17.30;;
6019;SDS011;3038;51.122;6.840;2022-08-19T00:14:34;19.30;;;17.70;;
6019;SDS011;3038;51.122;6.840;2022-08-19T00:17:00;17.93;;;16.50;;
6019;SDS011;3038;51.122;6.840;2022-08-19T00:19:27;20.33;;;18.50;;
6019;SDS011;3038;51.122;6.840;2022-08-19T00:21:52;20.10;;;18.47;;
6019;SDS011;3038;51.122;6.840;2022-08-19T00:24:19;19.63;;;17.83;;
6019;SDS011;3038;51.122;6.840;2022-08-19T00:26:45;18.13;;;16.60;;
6019;SDS011;3038;51.122;6.840;2022-08-19T00:29:11;16.83;;;15.43;;
6019;SDS011;3038;51.122;6.840;2022-08-19T00:31:39;17.40;;;15.90;;
6019;SDS011;3038;51.122;6.840;2022-08-19T00:34:06;17.73;;;16.20;;
6019;SDS011;3038;51.122;6.840;2022-08-19T00:36:32;15.93;;;14.63;;
6019;SDS011;3038;51.122;6.840;2022-08-19T00:38:58;17.90;;;16.20;;
6019;SDS011;3038;51.122;6.840;2022-08-19T00:41:24;18.03;;;16.50;;
6019;SDS011;3038;51.122;6.840;2022-08-19T00:44:26;19.03;;;17.33;;
6019;SDS011;3038;51.122;6.840;2022-08-19T00:46:51;19.90;;;18.10;;
6019;SDS011;3038;51.122;6.840;2022-08-19T00:51:46;19.83;;;17.87;;
6019;SDS011;3038;51.122;6.840;2022-08-19T00:54:15;22.07;;;19.97;;
6019;SDS011;3038;51.122;6.840;2022-08-19T00:56:40;19.37;;;17.87;;
6019;SDS011;3038;51.122;6.840;2022-08-19T00:59:06;20.33;;;18.63;;
6019;SDS011;3038;51.122;6.840;2022-08-19T01:01:35;20.37;;;18.73;;
6019;SDS011;3038;51.122;6.840;2022-08-19T01:04:01;20.47;;;18.73;;
6019;SDS011;3038;51.122;6.840;2022-08-19T01:06:27;19.67;;;18.13;;
6019;SDS011;3038;51.122;6.840;2022-08-19T01:08:53;19.70;;;17.97;;
6019;SDS011;3038;51.122;6.840;2022-08-19T01:11:19;20.70;;;18.80;;
6019;SDS011;3038;51.122;6.840;2022-08-19T01:13:45;21.13;;;19.30;;
6019;SDS011;3038;51.122;6.840;2022-08-19T01:16:11;20.93;;;19.23;;
6019;SDS011;3038;51.122;6.840;2022-08-19T01:18:40;21.83;;;20.13;;
6019;SDS011;3038;51.122;6.840;2022-08-19T01:21:18;23.23;;;20.60;;
6019;SDS011;3038;51.122;6.840;2022-08-19T01:23:51;22.17;;;20.27;;
6019;SDS011;3038;51.122;6.840;2022-08-19T01:26:19;21.90;;;20.20;;
6019;SDS011;3038;51.122;6.840;2022-08-19T01:28:47;24.13;;;22.10;;
6019;SDS011;3038;51.122;6.840;2022-08-19T01:31:18;22.63;;;20.50;;
6019;SDS011;3038;51.122;6.840;2022-08-19T01:33:46;20.77;;;18.80;;
6019;SDS011;3038;51.122;6.840;2022-08-19T01:36:14;23.20;;;21.40;;
6019;SDS011;3038;51.122;6.840;2022-08-19T01:38:47;22.30;;;20.50;;
6019;SDS011;3038;51.122;6.840;2022-08-19T01:41:13;23.40;;;21.33;;
6019;SDS011;3038;51.122;6.840;2022-08-19T01:43:40;24.47;;;22.30;;
6019;SDS011;3038;51.122;6.840;2022-08-19T01:46:05;22.87;;;20.93;;
6019;SDS011;3038;51.122;6.840;2022-08-19T01:48:35;24.27;;;22.10;;
6019;SDS011;3038;51.122;6.840;2022-08-19T01:51:03;22.30;;;20.23;;
6019;SDS011;3038;51.122;6.840;2022-08-19T01:53:29;23.87;;;21.67;;
6019;SDS011;3038;51.122;6.840;2022-08-19T01:55:55;25.40;;;23.10;;
6019;SDS011;3038;51.122;6.840;2022-08-19T01:58:23;24.27;;;21.93;;
6019;SDS011;3038;51.122;6.840;2022-08-19T02:00:55;23.30;;;21.20;;
6019;SDS011;3038;51.122;6.840;2022-08-19T02:03:20;23.63;;;21.57;;
6019;SDS011;3038;51.122;6.840;2022-08-19T02:05:46;24.00;;;21.87;;
6019;SDS011;3038;51.122;6.840;2022-08-19T02:08:11;23.57;;;21.47;;
6019;SDS011;3038;51.122;6.840;2022-08-19T02:10:38;21.97;;;20.13;;
6019;SDS011;3038;51.122;6.840;2022-08-19T02:13:05;21.60;;;19.60;;
6019;SDS011;3038;51.122;6.840;2022-08-19T02:15:31;23.63;;;21.13;;
6019;SDS011;3038;51.122;6.840;2022-08-19T02:17:57;22.70;;;20.60;;
6019;SDS011;3038;51.122;6.840;2022-08-19T02:20:22;21.27;;;19.33;;
6019;SDS011;3038;51.122;6.840;2022-08-19T02:22:47;23.10;;;20.90;;
6019;SDS011;3038;51.122;6.840;2022-08-19T02:25:13;22.37;;;20.43;;
6019;SDS011;3038;51.122;6.840;2022-08-19T02:27:39;24.93;;;22.73;;
6019;SDS011;3038;51.122;6.840;2022-08-19T02:30:06;24.63;;;22.37;;
6019;SDS011;3038;51.122;6.840;2022-08-19T02:32:33;25.20;;;22.90;;
6019;SDS011;3038;51.122;6.840;2022-08-19T02:34:58;23.37;;;21.33;;
6019;SDS011;3038;51.122;6.840;2022-08-19T02:37:24;22.87;;;20.83;;
6019;SDS011;3038;51.122;6.840;2022-08-19T02:40:08;23.67;;;21.30;;
6019;SDS011;3038;51.122;6.840;2022-08-19T02:42:34;26.83;;;24.70;;
6019;SDS011;3038;51.122;6.840;2022-08-19T02:45:00;27.03;;;24.43;;
6019;SDS011;3038;51.122;6.840;2022-08-19T02:47:25;24.83;;;22.63;;
6019;SDS011;3038;51.122;6.840;2022-08-19T02:49:50;24.20;;;21.97;;
6019;SDS011;3038;51.122;6.840;2022-08-19T02:52:16;26.30;;;23.73;;
6019;SDS011;3038;51.122;6.840;2022-08-19T02:54:41;26.10;;;23.77;;
6019;SDS011;3038;51.122;6.840;2022-08-19T02:57:07;25.60;;;23.00;;
6019;SDS011;3038;51.122;6.840;2022-08-19T02:59:32;27.23;;;24.67;;
6019;SDS011;3038;51.122;6.840;2022-08-19T03:01:58;27.83;;;25.00;;
6019;SDS011;3038;51.122;6.840;2022-08-19T03:04:23;26.33;;;23.73;;
6019;SDS011;3038;51.122;6.840;2022-08-19T03:06:49;25.03;;;22.90;;
6019;SDS011;3038;51.122;6.840;2022-08-19T03:09:16;25.57;;;23.23;;
6019;SDS011;3038;51.122;6.840;2022-08-19T03:11:43;28.23;;;25.73;;
6019;SDS011;3038;51.122;6.840;2022-08-19T03:14:09;30.90;;;27.90;;
6019;SDS011;3038;51.122;6.840;2022-08-19T03:16:39;31.70;;;28.70;;
6019;SDS011;3038;51.122;6.840;2022-08-19T03:19:07;32.63;;;29.43;;
6019;SDS011;3038;51.122;6.840;2022-08-19T03:21:33;33.93;;;30.67;;
6019;SDS011;3038;51.122;6.840;2022-08-19T03:24:00;33.70;;;30.30;;
6019;SDS011;3038;51.122;6.840;2022-08-19T03:26:28;33.60;;;30.60;;
6019;SDS011;3038;51.122;6.840;2022-08-19T03:28:54;31.53;;;28.70;;
6019;SDS011;3038;51.122;6.840;2022-08-19T03:31:20;32.70;;;29.60;;
6019;SDS011;3038;51.122;6.840;2022-08-19T03:33:52;35.13;;;31.43;;
6019;SDS011;3038;51.122;6.840;2022-08-19T03:36:21;32.43;;;29.23;;
6019;SDS011;3038;51.122;6.840;2022-08-19T03:38:52;39.40;;;33.07;;
6019;SDS011;3038;51.122;6.840;2022-08-19T03:41:24;33.97;;;30.80;;
6019;SDS011;3038;51.122;6.840;2022-08-19T03:43:52;37.07;;;33.17;;
6019;SDS011;3038;51.122;6.840;2022-08-19T03:46:19;36.87;;;32.87;;
6019;SDS011;3038;51.122;6.840;2022-08-19T03:48:47;37.20;;;31.20;;
6019;SDS011;3038;51.122;6.840;2022-08-19T03:51:18;36.40;;;33.03;;
6019;SDS011;3038;51.122;6.840;2022-08-19T03:53:45;37.20;;;33.23;;
6019;SDS011;3038;51.122;6.840;2022-08-19T03:56:11;36.60;;;32.60;;
6019;SDS011;3038;51.122;6.840;2022-08-19T03:58:38;42.30;;;35.87;;
6019;SDS011;3038;51.122;6.840;2022-08-19T04:01:09;38.37;;;34.17;;
6019;SDS011;3038;51.122;6.840;2022-08-19T04:03:35;43.00;;;38.13;;
6019;SDS011;3038;51.122;6.840;2022-08-19T04:06:17;43.37;;;39.03;;
6019;SDS011;3038;51.122;6.840;2022-08-19T04:08:44;45.53;;;40.60;;
6019;SDS011;3038;51.122;6.840;2022-08-19T04:11:11;49.60;;;42.73;;
6019;SDS011;3038;51.122;6.840;2022-08-19T04:13:39;56.60;;;44.90;;
6019;SDS011;3038;51.122;6.840;2022-08-19T04:16:05;49.30;;;44.30;;
6019;SDS011;3038;51.122;6.840;2022-08-19T04:18:32;48.93;;;43.90;;
6019;SDS011;3038;51.122;6.840;2022-08-19T04:20:59;49.60;;;44.30;;
6019;SDS011;3038;51.122;6.840;2022-08-19T04:23:25;50.97;;;45.20;;
6019;SDS011;3038;51.122;6.840;2022-08-19T04:25:52;50.10;;;44.70;;
6019;SDS011;3038;51.122;6.840;2022-08-19T04:28:17;53.93;;;47.23;;
6019;SDS011;3038;51.122;6.840;2022-08-19T04:30:46;54.10;;;48.40;;
6019;SDS011;3038;51.122;6.840;2022-08-19T04:33:15;53.60;;;47.77;;
6019;SDS011;3038;51.122;6.840;2022-08-19T04:35:47;51.33;;;45.30;;
6019;SDS011;3038;51.122;6.840;2022-08-19T04:38:14;56.23;;;47.77;;
6019;SDS011;3038;51.122;6.840;2022-08-19T04:40:45;54.47;;;48.70;;
6019;SDS011;3038;51.122;6.840;2022-08-19T04:43:31;53.07;;;46.77;;
6019;SDS011;3038;51.122;6.840;2022-08-19T04:45:58;54.37;;;48.07;;
6019;SDS011;3038;51.122;6.840;2022-08-19T04:48:23;52.30;;;46.80;;
6019;SDS011;3038;51.122;6.840;2022-08-19T04:50:55;50.93;;;45.40;;
6019;SDS011;3038;51.122;6.840;2022-08-19T04:53:29;54.07;;;48.37;;
6019;SDS011;3038;51.122;6.840;2022-08-19T04:55:56;52.60;;;47.00;;
6019;SDS011;3038;51.122;6.840;2022-08-19T04:58:24;49.87;;;44.97;;
6019;SDS011;3038;51.122;6.840;2022-08-19T05:00:51;51.07;;;45.87;;
6019;SDS011;3038;51.122;6.840;2022-08-19T05:03:17;56.67;;;47.00;;
6019;SDS011;3038;51.122;6.840;2022-08-19T05:05:43;51.40;;;45.70;;
6019;SDS011;3038;51.122;6.840;2022-08-19T05:08:11;50.83;;;45.43;;
6019;SDS011;3038;51.122;6.840;2022-08-19T05:10:38;51.70;;;46.20;;
6019;SDS011;3038;51.122;6.840;2022-08-19T05:13:04;51.90;;;46.27;;
6019;SDS011;3038;51.122;6.840;2022-08-19T05:15:30;60.43;;;53.27;;
6019;SDS011;3038;51.122;6.840;2022-08-19T05:17:55;59.97;;;53.47;;
6019;SDS011;3038;51.122;6.840;2022-08-19T05:20:40;63.87;;;57.10;;
6019;SDS011;3038;51.122;6.840;2022-08-19T05:23:24;64.80;;;58.03;;
6019;SDS011;3038;51.122;6.840;2022-08-19T05:25:49;65.03;;;57.97;;
6019;SDS011;3038;51.122;6.840;2022-08-19T05:28:16;83.57;;;59.90;;
6019;SDS011;3038;51.122;6.840;2022-08-19T05:30:42;66.40;;;58.07;;
6019;SDS011;3038;51.122;6.840;2022-08-19T05:33:09;63.63;;;56.73;;
6019;SDS011;3038;51.122;6.840;2022-08-19T05:35:37;66.87;;;57.13;;
6019;SDS011;3038;51.122;6.840;2022-08-19T05:38:04;63.90;;;56.93;;
6019;SDS011;3038;51.122;6.840;2022-08-19T05:40:31;68.23;;;60.57;;
6019;SDS011;3038;51.122;6.840;2022-08-19T05:43:05;64.90;;;57.90;;
6019;SDS011;3038;51.122;6.840;2022-08-19T05:45:32;68.60;;;58.60;;
6019;SDS011;3038;51.122;6.840;2022-08-19T05:48:02;69.10;;;57.57;;
6019;SDS011;3038;51.122;6.840;2022-08-19T05:50:27;69.93;;;59.50;;
6019;SDS011;3038;51.122;6.840;2022-08-19T05:52:53;68.73;;;61.40;;
6019;SDS011;3038;51.122;6.840;2022-08-19T05:55:18;64.53;;;57.57;;
6019;SDS011;3038;51.122;6.840;2022-08-19T05:57:45;64.10;;;56.37;;
6019;SDS011;3038;51.122;6.840;2022-08-19T06:00:11;64.47;;;57.47;;
6019;SDS011;3038;51.122;6.840;2022-08-19T06:02:37;61.37;;;54.77;;
6019;SDS011;3038;51.122;6.840;2022-08-19T06:05:04;64.00;;;56.10;;
6019;SDS011;3038;51.122;6.840;2022-08-19T06:07:33;61.87;;;54.37;;
6019;SDS011;3038;51.122;6.840;2022-08-19T06:10:00;62.23;;;54.80;;
6019;SDS011;3038;51.122;6.840;2022-08-19T06:12:26;61.27;;;54.67;;
6019;SDS011;3038;51.122;6.840;2022-08-19T06:14:58;63.10;;;53.80;;
6019;SDS011;3038;51.122;6.840;2022-08-19T06:17:25;60.20;;;53.63;;
6019;SDS011;3038;51.122;6.840;2022-08-19T06:19:51;63.27;;;52.87;;
6019;SDS011;3038;51.122;6.840;2022-08-19T06:22:16;59.10;;;51.67;;
6019;SDS011;3038;51.122;6.840;2022-08-19T06:24:42;59.70;;;53.30;;
6019;SDS011;3038;51.122;6.840;2022-08-19T06:27:07;59.73;;;53.33;;
6019;SDS011;3038;51.122;6.840;2022-08-19T06:29:33;58.83;;;52.50;;
6019;SDS011;3038;51.122;6.840;2022-08-19T06:32:00;60.83;;;54.30;;
6019;SDS011;3038;51.122;6.840;2022-08-19T06:34:28;59.10;;;52.73;;
6019;SDS011;3038;51.122;6.840;2022-08-19T06:36:56;62.27;;;53.23;;
6019;SDS011;3038;51.122;6.840;2022-08-19T06:39:28;57.70;;;51.53;;
6019;SDS011;3038;51.122;6.840;2022-08-19T06:41:57;60.47;;;54.03;;
6019;SDS011;3038;51.122;6.840;2022-08-19T06:44:25;60.77;;;54.00;;
6019;SDS011;3038;51.122;6.840;2022-08-19T06:46:53;56.47;;;50.47;;
6019;SDS011;3038;51.122;6.840;2022-08-19T06:49:19;59.33;;;52.80;;
6019;SDS011;3038;51.122;6.840;2022-08-19T06:51:45;62.60;;;54.50;;
6019;SDS011;3038;51.122;6.840;2022-08-19T06:54:13;63.13;;;53.40;;
6019;SDS011;3038;51.122;6.840;2022-08-19T06:56:39;58.57;;;52.20;;
6019;SDS011;3038;51.122;6.840;2022-08-19T06:59:09;60.33;;;49.87;;
6019;SDS011;3038;51.122;6.840;2022-08-19T07:01:37;59.20;;;53.00;;
6019;SDS011;3038;51.122;6.840;2022-08-19T07:04:07;58.87;;;52.67;;
6019;SDS011;3038;51.122;6.840;2022-08-19T07:06:34;56.07;;;50.10;;
6019;SDS011;3038;51.122;6.840;2022-08-19T07:09:00;57.03;;;51.00;;
6019;SDS011;3038;51.122;6.840;2022-08-19T07:11:25;54.17;;;48.03;;
6019;SDS011;3038;51.122;6.840;2022-08-19T07:13:51;55.73;;;48.93;;
6019;SDS011;3038;51.122;6.840;2022-08-19T07:16:18;51.30;;;45.90;;
6019;SDS011;3038;51.122;6.840;2022-08-19T07:18:45;53.13;;;47.47;;
6019;SDS011;3038;51.122;6.840;2022-08-19T07:21:16;56.33;;;50.37;;
6019;SDS011;3038;51.122;6.840;2022-08-19T07:23:44;55.40;;;49.30;;
6019;SDS011;3038;51.122;6.840;2022-08-19T07:26:15;50.00;;;44.77;;
6019;SDS011;3038;51.122;6.840;2022-08-19T07:28:44;51.83;;;46.33;;
6019;SDS011;3038;51.122;6.840;2022-08-19T07:31:14;51.37;;;46.07;;
6019;SDS011;3038;51.122;6.840;2022-08-19T07:33:43;50.13;;;44.57;;
6019;SDS011;3038;51.122;6.840;2022-08-19T07:36:11;52.73;;;46.93;;
6019;SDS011;3038;51.122;6.840;2022-08-19T07:38:39;52.37;;;46.83;;
6019;SDS011;3038;51.122;6.840;2022-08-19T07:41:06;52.27;;;46.67;;
6019;SDS011;3038;51.122;6.840;2022-08-19T07:43:34;51.03;;;45.50;;
6019;SDS011;3038;51.122;6.840;2022-08-19T07:45:59;54.03;;;46.70;;
6019;SDS011;3038;51.122;6.840;2022-08-19T07:48:26;50.10;;;44.80;;
6019;SDS011;3038;51.122;6.840;2022-08-19T07:50:57;52.30;;;47.00;;
6019;SDS011;3038;51.122;6.840;2022-08-19T07:53:26;51.57;;;46.33;;
6019;SDS011;3038;51.122;6.840;2022-08-19T07:55:53;50.83;;;45.57;;
6019;SDS011;3038;51.122;6.840;2022-08-19T07:58:20;49.37;;;44.33;;
6019;SDS011;3038;51.122;6.840;2022-08-19T08:00:47;50.63;;;45.43;;
6019;SDS011;3038;51.122;6.840;2022-08-19T08:03:16;52.10;;;46.70;;
6019;SDS011;3038;51.122;6.840;2022-08-19T08:05:44;50.70;;;45.37;;
6019;SDS011;3038;51.122;6.840;2022-08-19T08:08:28;54.80;;;48.97;;
6019;SDS011;3038;51.122;6.840;2022-08-19T08:11:13;52.47;;;46.93;;
6019;SDS011;3038;51.122;6.840;2022-08-19T08:13:40;53.70;;;48.03;;
6019;SDS011;3038;51.122;6.840;2022-08-19T08:16:06;53.20;;;47.77;;
6019;SDS011;3038;51.122;6.840;2022-08-19T08:18:32;53.53;;;48.07;;
6019;SDS011;3038;51.122;6.840;2022-08-19T08:20:58;55.77;;;49.83;;
6019;SDS011;3038;51.122;6.840;2022-08-19T08:23:23;53.87;;;48.27;;
6019;SDS011;3038;51.122;6.840;2022-08-19T08:25:50;52.17;;;46.97;;
6019;SDS011;3038;51.122;6.840;2022-08-19T08:28:18;54.37;;;48.93;;
6019;SDS011;3038;51.122;6.840;2022-08-19T08:30:44;50.17;;;45.00;;
6019;SDS011;3038;51.122;6.840;2022-08-19T08:33:13;49.37;;;44.10;;
6019;SDS011;3038;51.122;6.840;2022-08-19T08:35:43;51.73;;;46.33;;
6019;SDS011;3038;51.122;6.840;2022-08-19T08:38:10;53.67;;;48.30;;
6019;SDS011;3038;51.122;6.840;2022-08-19T08:43:26;53.13;;;47.63;;
6019;SDS011;3038;51.122;6.840;2022-08-19T08:48:27;50.93;;;44.27;;
6019;SDS011;3038;51.122;6.840;2022-08-19T08:50:59;48.50;;;43.70;;
6019;SDS011;3038;51.122;6.840;2022-08-19T08:53:28;44.90;;;40.47;;
6019;SDS011;3038;51.122;6.840;2022-08-19T08:55:56;40.97;;;36.97;;
6019;SDS011;3038;51.122;6.840;2022-08-19T08:58:31;39.93;;;36.13;;
6019;SDS011;3038;51.122;6.840;2022-08-19T09:01:09;46.30;;;41.43;;
6019;SDS011;3038;51.122;6.840;2022-08-19T09:03:36;44.93;;;40.37;;
6019;SDS011;3038;51.122;6.840;2022-08-19T09:08:49;39.60;;;35.60;;
6019;SDS011;3038;51.122;6.840;2022-08-19T09:14:24;41.33;;;37.37;;
6019;SDS011;3038;51.122;6.840;2022-08-19T09:16:59;36.97;;;33.37;;
6019;SDS011;3038;51.122;6.840;2022-08-19T09:19:28;36.53;;;32.80;;
6019;SDS011;3038;51.122;6.840;2022-08-19T09:21:54;39.67;;;35.67;;
6019;SDS011;3038;51.122;6.840;2022-08-19T09:24:20;38.53;;;34.93;;
6019;SDS011;3038;51.122;6.840;2022-08-19T09:26:45;39.67;;;35.93;;
6019;SDS011;3038;51.122;6.840;2022-08-19T09:29:11;39.20;;;35.00;;
6019;SDS011;3038;51.122;6.840;2022-08-19T09:31:37;42.53;;;38.27;;
6019;SDS011;3038;51.122;6.840;2022-08-19T09:34:03;34.97;;;31.53;;
6019;SDS011;3038;51.122;6.840;2022-08-19T09:36:31;31.50;;;28.40;;
6019;SDS011;3038;51.122;6.840;2022-08-19T09:38:58;33.70;;;30.60;;
6019;SDS011;3038;51.122;6.840;2022-08-19T09:41:25;30.27;;;27.30;;
6019;SDS011;3038;51.122;6.840;2022-08-19T09:43:51;32.17;;;29.07;;
6019;SDS011;3038;51.122;6.840;2022-08-19T09:46:21;31.63;;;28.10;;
6019;SDS011;3038;51.122;6.840;2022-08-19T09:48:48;29.93;;;27.20;;
6019;SDS011;3038;51.122;6.840;2022-08-19T09:51:16;27.57;;;24.97;;
6019;SDS011;3038;51.122;6.840;2022-08-19T09:53:47;30.60;;;27.70;;
6019;SDS011;3038;51.122;6.840;2022-08-19T09:56:15;24.63;;;22.43;;
6019;SDS011;3038;51.122;6.840;2022-08-19T09:58:42;22.80;;;20.83;;
6019;SDS011;3038;51.122;6.840;2022-08-19T10:01:08;23.87;;;21.67;;
6019;SDS011;3038;51.122;6.840;2022-08-19T10:03:35;23.10;;;20.90;;
6019;SDS011;3038;51.122;6.840;2022-08-19T10:06:02;19.40;;;17.80;;
6019;SDS011;3038;51.122;6.840;2022-08-19T10:08:36;21.43;;;19.33;;
6019;SDS011;3038;51.122;6.840;2022-08-19T10:11:02;19.30;;;17.60;;
6019;SDS011;3038;51.122;6.840;2022-08-19T10:13:29;21.67;;;19.77;;
6019;SDS011;3038;51.122;6.840;2022-08-19T10:16:01;21.73;;;19.83;;
6019;SDS011;3038;51.122;6.840;2022-08-19T10:18:32;20.60;;;18.90;;
6019;SDS011;3038;51.122;6.840;2022-08-19T10:23:48;22.47;;;20.37;;
6019;SDS011;3038;51.122;6.840;2022-08-19T10:26:17;24.23;;;22.17;;
6019;SDS011;3038;51.122;6.840;2022-08-19T10:28:45;21.47;;;19.67;;
6019;SDS011;3038;51.122;6.840;2022-08-19T10:31:12;21.90;;;19.90;;
6019;SDS011;3038;51.122;6.840;2022-08-19T10:33:42;20.73;;;19.03;;
6019;SDS011;3038;51.122;6.840;2022-08-19T10:36:10;18.80;;;16.90;;
6019;SDS011;3038;51.122;6.840;2022-08-19T10:38:40;20.33;;;18.53;;
6019;SDS011;3038;51.122;6.840;2022-08-19T10:41:07;20.50;;;18.47;;
6019;SDS011;3038;51.122;6.840;2022-08-19T10:43:37;20.87;;;18.80;;
6019;SDS011;3038;51.122;6.840;2022-08-19T10:46:04;19.47;;;17.80;;
6019;SDS011;3038;51.122;6.840;2022-08-19T10:48:30;19.90;;;18.20;;
6019;SDS011;3038;51.122;6.840;2022-08-19T10:50:57;22.10;;;20.20;;
6019;SDS011;3038;51.122;6.840;2022-08-19T10:53:41;20.47;;;18.67;;
6019;SDS011;3038;51.122;6.840;2022-08-19T10:56:06;19.93;;;18.33;;
6019;SDS011;3038;51.122;6.840;2022-08-19T10:58:50;21.03;;;19.33;;
6019;SDS011;3038;51.122;6.840;2022-08-19T11:01:16;23.80;;;21.80;;
6019;SDS011;3038;51.122;6.840;2022-08-19T11:03:41;23.67;;;21.57;;
6019;SDS011;3038;51.122;6.840;2022-08-19T11:06:07;24.70;;;22.60;;
6019;SDS011;3038;51.122;6.840;2022-08-19T11:08:33;24.23;;;22.23;;
6019;SDS011;3038;51.122;6.840;2022-08-19T11:11:00;22.37;;;20.67;;
6019;SDS011;3038;51.122;6.840;2022-08-19T11:13:28;23.53;;;21.73;;
6019;SDS011;3038;51.122;6.840;2022-08-19T11:15:58;21.63;;;19.90;;
6019;SDS011;3038;51.122;6.840;2022-08-19T11:18:23;22.20;;;20.40;;
6019;SDS011;3038;51.122;6.840;2022-08-19T11:20:49;19.60;;;18.10;;
6019;SDS011;3038;51.122;6.840;2022-08-19T11:23:14;20.77;;;19.03;;
6019;SDS011;3038;51.122;6.840;2022-08-19T11:25:39;20.10;;;18.50;;
6019;SDS011;3038;51.122;6.840;2022-08-19T11:28:05;19.80;;;17.80;;
6019;SDS011;3038;51.122;6.840;2022-08-19T11:30:30;19.13;;;17.73;;
6019;SDS011;3038;51.122;6.840;2022-08-19T11:32:56;17.33;;;15.73;;
6019;SDS011;3038;51.122;6.840;2022-08-19T11:35:22;17.47;;;16.17;;
6019;SDS011;3038;51.122;6.840;2022-08-19T11:37:48;17.57;;;16.27;;
6019;SDS011;3038;51.122;6.840;2022-08-19T11:40:13;18.47;;;16.97;;
6019;SDS011;3038;51.122;6.840;2022-08-19T11:42:39;16.80;;;15.50;;
6019;SDS011;3038;51.122;6.840;2022-08-19T11:45:23;17.83;;;16.30;;
6019;SDS011;3038;51.122;6.840;2022-08-19T11:47:49;17.90;;;16.37;;
6019;SDS011;3038;51.122;6.840;2022-08-19T11:50:15;16.90;;;15.30;;
6019;SDS011;3038;51.122;6.840;2022-08-19T11:52:41;16.20;;;14.73;;
6019;SDS011;3038;51.122;6.840;2022-08-19T11:55:07;14.63;;;13.57;;
6019;SDS011;3038;51.122;6.840;2022-08-19T11:57:34;16.73;;;15.10;;
6019;SDS011;3038;51.122;6.840;2022-08-19T11:59:59;17.63;;;16.10;;
6019;SDS011;3038;51.122;6.840;2022-08-19T12:02:24;16.23;;;14.83;;
6019;SDS011;3038;51.122;6.840;2022-08-19T12:04:50;14.20;;;13.10;;
6019;SDS011;3038;51.122;6.840;2022-08-19T12:07:15;15.70;;;14.40;;
6019;SDS011;3038;51.122;6.840;2022-08-19T12:09:41;15.50;;;14.13;;
6019;SDS011;3038;51.122;6.840;2022-08-19T12:12:07;13.70;;;12.53;;
6019;SDS011;3038;51.122;6.840;2022-08-19T12:14:33;16.53;;;15.07;;
6019;SDS011;3038;51.122;6.840;2022-08-19T12:16:59;15.43;;;14.03;;
6019;SDS011;3038;51.122;6.840;2022-08-19T12:19:25;15.83;;;14.73;;
6019;SDS011;3038;51.122;6.840;2022-08-19T12:21:51;15.43;;;14.33;;
6019;SDS011;3038;51.122;6.840;2022-08-19T12:24:17;16.53;;;15.13;;
6019;SDS011;3038;51.122;6.840;2022-08-19T12:26:48;15.60;;;14.50;;
6019;SDS011;3038;51.122;6.840;2022-08-19T12:29:13;15.50;;;14.30;;
6019;SDS011;3038;51.122;6.840;2022-08-19T12:31:39;15.90;;;14.60;;
6019;SDS011;3038;51.122;6.840;2022-08-19T12:34:05;15.07;;;14.00;;
6019;SDS011;3038;51.122;6.840;2022-08-19T12:36:30;14.43;;;13.33;;
6019;SDS011;3038;51.122;6.840;2022-08-19T12:38:57;16.83;;;15.53;;
6019;SDS011;3038;51.122;6.840;2022-08-19T12:41:24;15.30;;;14.20;;
6019;SDS011;3038;51.122;6.840;2022-08-19T12:43:50;15.40;;;14.20;;
6019;SDS011;3038;51.122;6.840;2022-08-19T12:46:16;14.67;;;13.57;;
6019;SDS011;3038;51.122;6.840;2022-08-19T12:48:42;15.70;;;14.50;;
6019;SDS011;3038;51.122;6.840;2022-08-19T12:51:10;15.80;;;14.23;;
6019;SDS011;3038;51.122;6.840;2022-08-19T12:53:44;15.20;;;14.03;;
6019;SDS011;3038;51.122;6.840;2022-08-19T12:56:10;14.03;;;12.93;;
6019;SDS011;3038;51.122;6.840;2022-08-19T12:58:39;12.57;;;11.60;;
6019;SDS011;3038;51.122;6.840;2022-08-19T13:01:13;12.30;;;11.40;;
6019;SDS011;3038;51.122;6.840;2022-08-19T13:03:39;12.43;;;11.50;;
6019;SDS011;3038;51.122;6.840;2022-08-19T13:06:05;11.00;;;10.10;;
6019;SDS011;3038;51.122;6.840;2022-08-19T13:08:31;12.13;;;11.23;;
6019;SDS011;3038;51.122;6.840;2022-08-19T13:10:57;12.27;;;11.27;;
6019;SDS011;3038;51.122;6.840;2022-08-19T13:13:23;11.00;;;10.20;;
6019;SDS011;3038;51.122;6.840;2022-08-19T13:15:50;10.90;;;10.20;;
6019;SDS011;3038;51.122;6.840;2022-08-19T13:18:16;10.30;;;9.60;;
6019;SDS011;3038;51.122;6.840;2022-08-19T13:20:41;11.68;;;10.77;;
6019;SDS011;3038;51.122;6.840;2022-08-19T13:23:07;13.10;;;12.10;;
6019;SDS011;3038;51.122;6.840;2022-08-19T13:25:33;11.83;;;10.93;;
6019;SDS011;3038;51.122;6.840;2022-08-19T13:27:59;10.70;;;9.90;;
6019;SDS011;3038;51.122;6.840;2022-08-19T13:30:25;9.87;;;9.17;;
6019;SDS011;3038;51.122;6.840;2022-08-19T13:33:09;11.57;;;9.90;;
6019;SDS011;3038;51.122;6.840;2022-08-19T13:38:10;8.77;;;8.18;;
6019;SDS011;3038;51.122;6.840;2022-08-19T13:40:36;7.88;;;7.18;;
6019;SDS011;3038;51.122;6.840;2022-08-19T13:43:03;8.35;;;7.82;;
6019;SDS011;3038;51.122;6.840;2022-08-19T13:45:30;9.98;;;9.27;;
6019;SDS011;3038;51.122;6.840;2022-08-19T13:48:02;10.13;;;9.43;;
6019;SDS011;3038;51.122;6.840;2022-08-19T13:50:32;9.97;;;9.37;;
6019;SDS011;3038;51.122;6.840;2022-08-19T13:52:59;9.70;;;8.90;;
6019;SDS011;3038;51.122;6.840;2022-08-19T13:55:25;10.60;;;9.90;;
6019;SDS011;3038;51.122;6.840;2022-08-19T13:57:52;10.47;;;9.43;;
6019;SDS011;3038;51.122;6.840;2022-08-19T14:00:20;9.73;;;8.87;;
6019;SDS011;3038;51.122;6.840;2022-08-19T14:02:50;9.53;;;8.63;;
6019;SDS011;3038;51.122;6.840;2022-08-19T14:05:16;9.30;;;8.60;;
6019;SDS011;3038;51.122;6.840;2022-08-19T14:07:43;8.50;;;7.90;;
6019;SDS011;3038;51.122;6.840;2022-08-19T14:10:09;9.00;;;8.27;;
6019;SDS011;3038;51.122;6.840;2022-08-19T14:12:36;9.00;;;8.10;;
6019;SDS011;3038;51.122;6.840;2022-08-19T14:15:03;8.17;;;7.47;;
6019;SDS011;3038;51.122;6.840;2022-08-19T14:17:31;8.00;;;7.40;;
6019;SDS011;3038;51.122;6.840;2022-08-19T14:19:57;8.83;;;7.90;;
6019;SDS011;3038;51.122;6.840;2022-08-19T14:22:29;8.93;;;8.10;;
6019;SDS011;3038;51.122;6.840;2022-08-19T14:24:56;7.83;;;7.23;;
6019;SDS011;3038;51.122;6.840;2022-08-19T14:27:22;7.93;;;6.63;;
6019;SDS011;3038;51.122;6.840;2022-08-19T14:29:48;8.20;;;7.60;;
6019;SDS011;3038;51.122;6.840;2022-08-19T14:32:14;7.80;;;7.13;;
6019;SDS011;3038;51.122;6.840;2022-08-19T14:34:39;7.47;;;6.83;;
6019;SDS011;3038;51.122;6.840;2022-08-19T14:37:04;9.60;;;7.60;;
6019;SDS011;3038;51.122;6.840;2022-08-19T14:39:30;8.20;;;7.60;;
6019;SDS011;3038;51.122;6.840;2022-08-19T14:41:56;7.57;;;6.97;;
6019;SDS011;3038;51.122;6.840;2022-08-19T14:44:22;7.90;;;7.10;;
6019;SDS011;3038;51.122;6.840;2022-08-19T14:46:48;7.00;;;6.50;;
6019;SDS011;3038;51.122;6.840;2022-08-19T14:49:13;7.93;;;7.27;;
6019;SDS011;3038;51.122;6.840;2022-08-19T14:51:38;8.07;;;7.47;;
6019;SDS011;3038;51.122;6.840;2022-08-19T14:54:04;8.27;;;7.47;;
6019;SDS011;3038;51.122;6.840;2022-08-19T14:56:29;6.77;;;6.30;;
6019;SDS011;3038;51.122;6.840;2022-08-19T14:58:55;8.70;;;6.77;;
6019;SDS011;3038;51.122;6.840;2022-08-19T15:01:24;6.60;;;6.10;;
6019;SDS011;3038;51.122;6.840;2022-08-19T15:03:50;6.20;;;5.60;;
6019;SDS011;3038;51.122;6.840;2022-08-19T15:06:17;5.73;;;5.33;;
6019;SDS011;3038;51.122;6.840;2022-08-19T15:08:43;5.97;;;5.47;;
6019;SDS011;3038;51.122;6.840;2022-08-19T15:11:14;5.73;;;5.33;;
6019;SDS011;3038;51.122;6.840;2022-08-19T15:13:42;5.73;;;5.23;;